Time;durP1;ratioP1;P1;durP2;ratioP2;P2;SDS_P1;SDS_P2;PMS_P1;PMS_P2;Temp;Humidity;BMP_temperature;BMP_pressure;BME280_temperature;BME280_humidity;BME280_pressure;Samples;Min_cycle;Max_cycle;Signal;HPM_P1;HPM_P2
2021/05/15 00:01:23;;;;;;;14.27;10.75;;;;;;;;;;5033553;28;20202;-61
2021/05/15 00:03:50;;;;;;;12.88;11.57;;;;;;;;;;5033280;28;20214;-61
2021/05/15 00:06:16;;;;;;;12.32;10.73;;;;;;;;;;5033180;28;20202;-61
2021/05/15 00:08:43;;;;;;;13.55;11.18;;;;;;;;;;5032983;28;20226;-62
2021/05/15 00:11:10;;;;;;;14.50;11.20;;;;;;;;;;5033301;28;20206;-62
2021/05/15 00:13:37;;;;;;;13.50;11.45;;;;;;;;;;5033295;28;20209;-62
2021/05/15 00:16:05;;;;;;;11.60;10.40;;;;;;;;;;5033327;28;20206;-61
2021/05/15 00:18:31;;;;;;;13.45;10.23;;;;;;;;;;5033274;28;20229;-62
2021/05/15 00:20:58;;;;;;;12.55;11.07;;;;;;;;;;5032977;28;20689;-62
2021/05/15 00:23:25;;;;;;;12.05;10.77;;;;;;;;;;5034372;28;20211;-62
2021/05/15 00:25:51;;;;;;;11.88;10.60;;;;;;;;;;5037387;28;20216;-62
2021/05/15 00:28:18;;;;;;;12.88;11.48;;;;;;;;;;5037197;28;20597;-62
2021/05/15 00:30:45;;;;;;;15.57;11.52;;;;;;;;;;5036907;28;20614;-62
2021/05/15 00:33:13;;;;;;;16.15;12.77;;;;;;;;;;5036984;28;20203;-61
2021/05/15 00:35:39;;;;;;;20.58;14.00;;;;;;;;;;5038140;28;20203;-61
2021/05/15 00:38:06;;;;;;;16.90;13.85;;;;;;;;;;5037092;28;20717;-61
2021/05/15 00:40:33;;;;;;;19.20;14.40;;;;;;;;;;5036824;28;20202;-61
2021/05/15 00:43:00;;;;;;;18.35;13.20;;;;;;;;;;5036772;28;20202;-62
2021/05/15 00:45:26;;;;;;;17.77;13.13;;;;;;;;;;5037012;28;20210;-62
2021/05/15 00:47:53;;;;;;;19.73;12.90;;;;;;;;;;5036616;28;20710;-62
2021/05/15 00:50:21;;;;;;;19.10;13.40;;;;;;;;;;5036622;28;20202;-62
2021/05/15 00:52:47;;;;;;;15.95;13.25;;;;;;;;;;5036551;28;20645;-62
2021/05/15 00:55:15;;;;;;;17.05;13.30;;;;;;;;;;5036527;28;20670;-62
2021/05/15 00:57:42;;;;;;;21.67;13.98;;;;;;;;;;5036914;28;20639;-62
2021/05/15 01:00:10;;;;;;;16.60;13.63;;;;;;;;;;5036763;28;20547;-62
2021/05/15 01:02:37;;;;;;;15.30;12.88;;;;;;;;;;5036759;28;20202;-62
2021/05/15 01:05:04;;;;;;;15.70;14.10;;;;;;;;;;5037156;28;20582;-62
2021/05/15 01:07:31;;;;;;;19.33;13.95;;;;;;;;;;5038028;28;20230;-62
2021/05/15 01:09:58;;;;;;;16.98;13.63;;;;;;;;;;5037251;28;20210;-62
2021/05/15 01:12:25;;;;;;;19.83;15.88;;;;;;;;;;5037253;28;20205;-62
2021/05/15 01:14:52;;;;;;;17.67;14.93;;;;;;;;;;5037323;28;20209;-61
2021/05/15 01:17:18;;;;;;;19.00;15.97;;;;;;;;;;5037435;28;20222;-61
2021/05/15 01:19:45;;;;;;;21.07;17.00;;;;;;;;;;5036961;28;20490;-61
2021/05/15 01:22:13;;;;;;;20.73;16.80;;;;;;;;;;5036820;28;20444;-61
2021/05/15 01:24:41;;;;;;;20.77;16.80;;;;;;;;;;5037041;28;20673;-61
2021/05/15 01:27:08;;;;;;;22.45;18.30;;;;;;;;;;5036991;28;20230;-61
2021/05/15 01:29:35;;;;;;;19.37;16.87;;;;;;;;;;5036730;28;20219;-61
2021/05/15 01:32:02;;;;;;;20.13;16.87;;;;;;;;;;5036995;28;20937;-61
2021/05/15 01:34:28;;;;;;;20.97;16.27;;;;;;;;;;5035657;28;20952;-61
2021/05/15 01:36:55;;;;;;;19.90;17.83;;;;;;;;;;5035760;28;20452;-62
2021/05/15 01:39:23;;;;;;;20.40;18.30;;;;;;;;;;5036286;28;20448;-61
2021/05/15 01:41:50;;;;;;;26.57;19.67;;;;;;;;;;5037206;28;20800;-62
2021/05/15 01:44:17;;;;;;;24.13;19.77;;;;;;;;;;5037117;28;20449;-62
2021/05/15 01:46:44;;;;;;;22.33;19.90;;;;;;;;;;5037308;28;20448;-62
2021/05/15 01:49:11;;;;;;;23.90;19.50;;;;;;;;;;5036016;28;20991;-62
2021/05/15 01:51:37;;;;;;;25.60;20.33;;;;;;;;;;5035957;28;20445;-62
2021/05/15 01:54:04;;;;;;;20.50;18.30;;;;;;;;;;5035759;28;20460;-62
2021/05/15 01:56:32;;;;;;;23.90;20.13;;;;;;;;;;5035545;28;20445;-61
2021/05/15 01:58:59;;;;;;;24.00;19.60;;;;;;;;;;5035960;28;20468;-61
2021/05/15 02:01:26;;;;;;;30.40;19.43;;;;;;;;;;5035863;28;20455;-61
2021/05/15 02:03:53;;;;;;;23.47;18.97;;;;;;;;;;5035225;28;20460;-62
2021/05/15 02:06:20;;;;;;;24.90;20.33;;;;;;;;;;5035538;28;20521;-61
2021/05/15 02:08:49;;;;;;;23.83;20.20;;;;;;;;;;5035033;28;20516;-62
2021/05/15 02:11:16;;;;;;;22.80;19.53;;;;;;;;;;5035356;28;20551;-62
2021/05/15 02:13:44;;;;;;;26.20;19.07;;;;;;;;;;5035047;28;20586;-62
2021/05/15 02:16:11;;;;;;;24.23;20.50;;;;;;;;;;5035027;28;20453;-60
2021/05/15 02:18:38;;;;;;;26.58;20.88;;;;;;;;;;5034839;28;21041;-62
2021/05/15 02:21:05;;;;;;;26.13;20.80;;;;;;;;;;5035173;28;20264;-61
2021/05/15 02:23:32;;;;;;;29.87;21.60;;;;;;;;;;5034778;28;20453;-60
2021/05/15 02:25:59;;;;;;;25.83;20.92;;;;;;;;;;5035162;28;20528;-60
2021/05/15 02:28:26;;;;;;;30.98;22.70;;;;;;;;;;5034627;28;20226;-62
2021/05/15 02:30:54;;;;;;;27.25;21.70;;;;;;;;;;5035047;28;20225;-61
2021/05/15 02:33:20;;;;;;;26.37;21.90;;;;;;;;;;5035048;28;20617;-62
2021/05/15 02:35:47;;;;;;;25.20;21.05;;;;;;;;;;5034737;28;20959;-62
2021/05/15 02:38:15;;;;;;;22.55;19.55;;;;;;;;;;5034866;28;20296;-61
2021/05/15 02:40:42;;;;;;;25.02;21.48;;;;;;;;;;5035538;28;20206;-61
2021/05/15 02:43:09;;;;;;;27.50;22.15;;;;;;;;;;5034666;28;20692;-61
2021/05/15 02:45:37;;;;;;;27.33;22.27;;;;;;;;;;5035149;28;20210;-60
2021/05/15 02:48:04;;;;;;;29.58;22.05;;;;;;;;;;5033708;28;20292;-62
2021/05/15 02:50:31;;;;;;;28.60;22.00;;;;;;;;;;5034641;28;20202;-62
2021/05/15 02:52:58;;;;;;;29.58;22.20;;;;;;;;;;5034748;28;20225;-61
2021/05/15 02:55:25;;;;;;;28.73;21.92;;;;;;;;;;5034769;28;20229;-62
2021/05/15 02:57:53;;;;;;;25.52;21.85;;;;;;;;;;5034670;28;20249;-61
2021/05/15 03:00:20;;;;;;;26.10;20.35;;;;;;;;;;5034507;28;20202;-61
2021/05/15 03:02:47;;;;;;;28.55;19.75;;;;;;;;;;5035110;28;20202;-61
2021/05/15 03:05:16;;;;;;;25.70;20.92;;;;;;;;;;5034092;28;20199;-61
2021/05/15 03:07:42;;;;;;;27.17;21.08;;;;;;;;;;5035358;28;20235;-61
2021/05/15 03:10:10;;;;;;;26.67;22.38;;;;;;;;;;5034238;28;20620;-62
2021/05/15 03:12:37;;;;;;;25.08;20.23;;;;;;;;;;5034171;28;20202;-61
2021/05/15 03:15:06;;;;;;;23.48;19.85;;;;;;;;;;5034213;28;20206;-62
2021/05/15 03:17:33;;;;;;;25.15;18.85;;;;;;;;;;5034181;28;20222;-61
2021/05/15 03:19:59;;;;;;;24.50;18.98;;;;;;;;;;5034247;28;20233;-61
2021/05/15 03:22:27;;;;;;;19.92;17.58;;;;;;;;;;5034174;28;20206;-61
2021/05/15 03:24:54;;;;;;;20.88;17.45;;;;;;;;;;5033997;28;20205;-61
2021/05/15 03:27:20;;;;;;;22.15;17.52;;;;;;;;;;5033895;28;20218;-61
2021/05/15 03:29:47;;;;;;;23.90;17.13;;;;;;;;;;5034019;28;20221;-62
2021/05/15 03:32:14;;;;;;;20.83;18.42;;;;;;;;;;5034011;28;20215;-61
2021/05/15 03:34:41;;;;;;;20.30;17.33;;;;;;;;;;5033918;28;20206;-61
2021/05/15 03:37:07;;;;;;;19.17;15.98;;;;;;;;;;5033765;28;20227;-62
2021/05/15 03:39:35;;;;;;;20.08;15.85;;;;;;;;;;5033449;28;20552;-61
2021/05/15 03:42:02;;;;;;;23.20;18.08;;;;;;;;;;5033493;28;20574;-62
2021/05/15 03:44:28;;;;;;;20.20;17.08;;;;;;;;;;5033441;28;20206;-62
2021/05/15 03:46:55;;;;;;;22.10;16.83;;;;;;;;;;5033279;28;20261;-62
2021/05/15 03:49:22;;;;;;;18.70;16.70;;;;;;;;;;5033751;28;20248;-62
2021/05/15 03:51:49;;;;;;;21.27;16.38;;;;;;;;;;5033654;28;20214;-61
2021/05/15 03:54:16;;;;;;;23.83;15.70;;;;;;;;;;5033869;28;20259;-62
2021/05/15 03:56:43;;;;;;;17.25;15.45;;;;;;;;;;5033682;28;20206;-62
2021/05/15 03:59:10;;;;;;;21.38;16.70;;;;;;;;;;5033252;28;20218;-62
2021/05/15 04:01:37;;;;;;;19.75;16.45;;;;;;;;;;5033555;28;20206;-62
2021/05/15 04:04:04;;;;;;;22.00;15.20;;;;;;;;;;5033864;28;20210;-62
2021/05/15 04:08:06;;;;;;;16.67;14.95;;;;;;;;;;5115912;27;20620;-61
2021/05/15 04:10:32;;;;;;;18.20;15.77;;;;;;;;;;5113104;28;20203;-62
2021/05/15 04:13:05;;;;;;;16.85;15.05;;;;;;;;;;5112911;28;20200;-61
2021/05/15 04:15:39;;;;;;;15.80;14.10;;;;;;;;;;5111292;28;20217;-61
2021/05/15 04:18:07;;;;;;;14.88;13.40;;;;;;;;;;5110936;28;20683;-61
2021/05/15 04:20:34;;;;;;;15.30;13.70;;;;;;;;;;5110881;28;20196;-61
2021/05/15 04:23:01;;;;;;;14.43;12.97;;;;;;;;;;5111298;28;20449;-61
2021/05/15 04:25:28;;;;;;;13.50;12.10;;;;;;;;;;5111141;28;20441;-62
2021/05/15 04:27:55;;;;;;;13.83;12.20;;;;;;;;;;5110702;28;20996;-61
2021/05/15 04:30:22;;;;;;;12.90;11.60;;;;;;;;;;5111034;28;20442;-61
2021/05/15 04:32:49;;;;;;;15.13;12.70;;;;;;;;;;5110709;28;20930;-62
2021/05/15 04:35:16;;;;;;;11.93;10.37;;;;;;;;;;5110693;28;20443;-61
2021/05/15 04:37:43;;;;;;;13.27;11.87;;;;;;;;;;5110820;28;20463;-61
2021/05/15 04:40:10;;;;;;;11.87;10.67;;;;;;;;;;5110446;28;20460;-62
2021/05/15 04:42:38;;;;;;;12.23;11.07;;;;;;;;;;5110631;28;20467;-62
2021/05/15 04:45:05;;;;;;;11.90;10.70;;;;;;;;;;5110596;28;20475;-62
2021/05/15 04:47:32;;;;;;;11.40;10.20;;;;;;;;;;5110302;28;20477;-61
2021/05/15 04:49:59;;;;;;;11.87;10.73;;;;;;;;;;5111336;28;20445;-61
2021/05/15 04:52:25;;;;;;;12.23;11.03;;;;;;;;;;5126162;28;20821;-61
2021/05/15 04:54:52;;;;;;;11.17;9.97;;;;;;;;;;5121608;28;20445;-62
2021/05/15 04:57:19;;;;;;;11.47;10.37;;;;;;;;;;5111356;28;20458;-62
2021/05/15 04:59:46;;;;;;;12.03;10.93;;;;;;;;;;5110538;28;20467;-62
2021/05/15 05:02:13;;;;;;;11.83;10.63;;;;;;;;;;5110488;28;20453;-62
2021/05/15 05:04:40;;;;;;;12.50;10.50;;;;;;;;;;5110409;28;20951;-62
2021/05/15 05:07:07;;;;;;;12.00;10.87;;;;;;;;;;5109953;28;20485;-62
2021/05/15 05:09:33;;;;;;;11.13;10.03;;;;;;;;;;5110405;28;20439;-60
2021/05/15 05:12:00;;;;;;;10.77;9.67;;;;;;;;;;5110351;28;20447;-61
2021/05/15 05:14:27;;;;;;;11.70;10.50;;;;;;;;;;5110331;28;20441;-61
2021/05/15 05:16:55;;;;;;;12.07;10.77;;;;;;;;;;5110086;28;20440;-61
2021/05/15 05:19:22;;;;;;;11.33;10.33;;;;;;;;;;5096919;28;20445;-62
2021/05/15 05:21:49;;;;;;;11.03;10.03;;;;;;;;;;5096124;28;20448;-62
2021/05/15 05:24:16;;;;;;;10.87;9.77;;;;;;;;;;5096293;28;20449;-62
2021/05/15 05:26:43;;;;;;;11.00;10.00;;;;;;;;;;5096003;28;20499;-61
2021/05/15 05:29:09;;;;;;;11.40;10.20;;;;;;;;;;5096103;28;20458;-61
2021/05/15 05:31:36;;;;;;;10.63;9.60;;;;;;;;;;5096353;28;20453;-61
2021/05/15 05:34:04;;;;;;;11.87;10.77;;;;;;;;;;5096002;28;20808;-61
2021/05/15 05:36:31;;;;;;;10.90;9.90;;;;;;;;;;5096173;28;20484;-61
2021/05/15 05:38:58;;;;;;;11.17;10.17;;;;;;;;;;5096040;28;20470;-61
2021/05/15 05:41:25;;;;;;;12.20;11.10;;;;;;;;;;5095700;28;20849;-61
2021/05/15 05:43:52;;;;;;;11.00;10.03;;;;;;;;;;5095528;28;20826;-60
2021/05/15 05:46:19;;;;;;;12.30;11.10;;;;;;;;;;5095582;28;20778;-60
2021/05/15 05:48:46;;;;;;;12.10;11.00;;;;;;;;;;5095722;28;20466;-62
2021/05/15 05:51:14;;;;;;;11.07;10.07;;;;;;;;;;5095483;28;20447;-61
2021/05/15 05:53:40;;;;;;;11.83;10.83;;;;;;;;;;5095773;28;20442;-62
2021/05/15 05:56:07;;;;;;;12.40;11.27;;;;;;;;;;5095697;28;20453;-61
2021/05/15 05:58:34;;;;;;;12.33;11.07;;;;;;;;;;5095308;28;20462;-62
2021/05/15 06:01:01;;;;;;;11.73;10.53;;;;;;;;;;5096367;28;20439;-62
2021/05/15 06:03:28;;;;;;;12.00;11.00;;;;;;;;;;5095796;28;20628;-62
2021/05/15 06:05:54;;;;;;;12.77;11.57;;;;;;;;;;5095671;28;20450;-61
2021/05/15 06:08:22;;;;;;;12.00;10.90;;;;;;;;;;5095521;28;20487;-61
2021/05/15 06:10:51;;;;;;;11.73;10.63;;;;;;;;;;5095242;28;20440;-62
2021/05/15 06:13:19;;;;;;;11.93;10.83;;;;;;;;;;5095612;28;20538;-61
2021/05/15 06:15:45;;;;;;;13.27;12.00;;;;;;;;;;5095701;28;20450;-61
2021/05/15 06:18:12;;;;;;;12.97;11.63;;;;;;;;;;5096274;28;20450;-61
2021/05/15 06:20:39;;;;;;;13.20;12.00;;;;;;;;;;5095571;28;20455;-61
2021/05/15 06:23:06;;;;;;;12.87;11.67;;;;;;;;;;5095451;28;20450;-61
2021/05/15 06:25:33;;;;;;;12.50;11.30;;;;;;;;;;5095602;28;20807;-61
2021/05/15 06:28:00;;;;;;;11.40;10.30;;;;;;;;;;5095443;28;20535;-61
2021/05/15 06:30:27;;;;;;;13.17;11.87;;;;;;;;;;5094880;28;20447;-60
2021/05/15 06:32:54;;;;;;;12.70;11.53;;;;;;;;;;5095993;28;20451;-61
2021/05/15 06:35:20;;;;;;;11.90;10.77;;;;;;;;;;5095669;28;20501;-61
2021/05/15 06:37:47;;;;;;;12.77;11.53;;;;;;;;;;5095718;28;20471;-61
2021/05/15 06:40:14;;;;;;;11.47;10.37;;;;;;;;;;5095034;28;20451;-61
2021/05/15 06:42:42;;;;;;;10.73;9.73;;;;;;;;;;5095269;28;20457;-61
2021/05/15 06:45:09;;;;;;;10.20;9.30;;;;;;;;;;5094521;28;20441;-62
2021/05/15 06:47:36;;;;;;;11.30;10.30;;;;;;;;;;5094305;28;20507;-62
2021/05/15 06:50:03;;;;;;;10.07;9.27;;;;;;;;;;5095006;28;20476;-62
2021/05/15 06:52:30;;;;;;;11.33;10.23;;;;;;;;;;5094606;28;20441;-62
2021/05/15 06:54:57;;;;;;;11.97;10.90;;;;;;;;;;5094795;28;20499;-62
2021/05/15 06:57:24;;;;;;;11.60;9.23;;;;;;;;;;5094510;28;20461;-62
2021/05/15 06:59:51;;;;;;;9.53;8.70;;;;;;;;;;5094484;28;20447;-62
2021/05/15 07:02:18;;;;;;;9.90;9.00;;;;;;;;;;5094384;28;20475;-62
2021/05/15 07:04:45;;;;;;;9.87;8.87;;;;;;;;;;5094476;28;20465;-62
2021/05/15 07:07:12;;;;;;;10.20;9.30;;;;;;;;;;5093992;28;20489;-61
2021/05/15 07:09:38;;;;;;;9.20;8.40;;;;;;;;;;5099442;28;20444;-62
2021/05/15 07:12:05;;;;;;;9.70;8.83;;;;;;;;;;5100015;28;20436;-61
2021/05/15 07:14:32;;;;;;;8.90;8.00;;;;;;;;;;5094593;28;20932;-62
2021/05/15 07:17:00;;;;;;;8.50;7.80;;;;;;;;;;5094414;28;20506;-61
2021/05/15 07:19:27;;;;;;;8.40;7.60;;;;;;;;;;5094555;28;20456;-61
2021/05/15 07:21:53;;;;;;;7.83;7.03;;;;;;;;;;5094063;28;20825;-61
2021/05/15 07:24:20;;;;;;;7.80;7.10;;;;;;;;;;5094292;28;20460;-61
2021/05/15 07:26:47;;;;;;;7.70;7.10;;;;;;;;;;5094462;28;20469;-62
2021/05/15 07:29:14;;;;;;;8.40;7.67;;;;;;;;;;5094099;28;20451;-62
2021/05/15 07:31:40;;;;;;;7.20;6.60;;;;;;;;;;5093622;28;20460;-62
2021/05/15 07:34:08;;;;;;;7.40;6.70;;;;;;;;;;5093700;28;20509;-61
2021/05/15 07:36:35;;;;;;;8.20;7.47;;;;;;;;;;5094236;28;20495;-61
2021/05/15 07:39:02;;;;;;;7.70;6.97;;;;;;;;;;5094081;28;20461;-62
2021/05/15 07:41:28;;;;;;;7.10;6.50;;;;;;;;;;5093466;28;20450;-61
2021/05/15 07:43:55;;;;;;;7.10;6.53;;;;;;;;;;5093869;28;20461;-61
2021/05/15 07:46:22;;;;;;;6.77;6.03;;;;;;;;;;5093700;28;20885;-61
2021/05/15 07:48:49;;;;;;;6.27;5.67;;;;;;;;;;5093526;28;20999;-62
2021/05/15 07:51:20;;;;;;;6.10;5.50;;;;;;;;;;5094143;28;20445;-62
2021/05/15 07:53:47;;;;;;;5.93;5.33;;;;;;;;;;5093984;28;20428;-61
2021/05/15 07:56:14;;;;;;;5.17;4.67;;;;;;;;;;5093330;28;20479;-61
2021/05/15 07:58:40;;;;;;;5.27;4.77;;;;;;;;;;5093904;28;20519;-61
2021/05/15 08:01:07;;;;;;;5.53;5.10;;;;;;;;;;5093485;28;20449;-62
2021/05/15 08:03:34;;;;;;;5.43;5.03;;;;;;;;;;5093770;28;20516;-61
2021/05/15 08:06:01;;;;;;;6.33;4.30;;;;;;;;;;5093378;28;20834;-62
2021/05/15 08:08:28;;;;;;;4.70;4.30;;;;;;;;;;5093540;28;20462;-62
2021/05/15 08:10:55;;;;;;;4.20;3.77;;;;;;;;;;5093357;28;20438;-61
2021/05/15 08:13:23;;;;;;;5.10;4.60;;;;;;;;;;5093626;28;20442;-61
2021/05/15 08:15:50;;;;;;;4.50;4.10;;;;;;;;;;5093323;28;20543;-62
2021/05/15 08:18:17;;;;;;;4.93;4.43;;;;;;;;;;5093203;28;20461;-62
2021/05/15 08:20:44;;;;;;;4.40;4.00;;;;;;;;;;5093068;28;20926;-62
2021/05/15 08:23:10;;;;;;;5.80;4.77;;;;;;;;;;5093317;28;20817;-61
2021/05/15 08:25:38;;;;;;;4.13;3.83;;;;;;;;;;5093281;28;20852;-61
2021/05/15 08:28:09;;;;;;;3.97;3.67;;;;;;;;;;5093057;28;20485;-61
2021/05/15 08:30:36;;;;;;;4.57;4.10;;;;;;;;;;5093003;28;20431;-61
2021/05/15 08:33:03;;;;;;;4.70;4.33;;;;;;;;;;5092789;28;20446;-60
2021/05/15 08:35:29;;;;;;;4.40;4.00;;;;;;;;;;5093018;28;20450;-62
2021/05/15 08:37:56;;;;;;;6.20;4.50;;;;;;;;;;5093081;28;20575;-61
2021/05/15 08:40:25;;;;;;;5.40;4.83;;;;;;;;;;5093448;28;20446;-61
2021/05/15 08:42:54;;;;;;;3.67;3.13;;;;;;;;;;5092927;28;20527;-61
2021/05/15 08:45:21;;;;;;;3.70;3.40;;;;;;;;;;5093683;28;20866;-61
2021/05/15 08:47:48;;;;;;;3.30;3.00;;;;;;;;;;5093789;28;20530;-62
2021/05/15 08:50:15;;;;;;;3.53;3.20;;;;;;;;;;5093093;28;20448;-61
2021/05/15 08:52:43;;;;;;;5.00;3.50;;;;;;;;;;5093683;28;20451;-61
2021/05/15 08:55:11;;;;;;;2.60;2.13;;;;;;;;;;5097168;28;20927;-62
2021/05/15 08:57:38;;;;;;;2.17;1.97;;;;;;;;;;5097263;28;20457;-61
2021/05/15 09:00:10;;;;;;;2.40;2.17;;;;;;;;;;5097324;28;20452;-62
2021/05/15 09:02:37;;;;;;;2.13;1.93;;;;;;;;;;5097040;28;20472;-61
2021/05/15 09:05:05;;;;;;;4.17;1.90;;;;;;;;;;5097013;28;20440;-62
2021/05/15 09:07:32;;;;;;;1.97;1.77;;;;;;;;;;5111406;22;20489;-60
2021/05/15 09:09:58;;;;;;;2.30;2.10;;;;;;;;;;5036157;28;20433;-59
2021/05/15 09:12:25;;;;;;;2.07;1.87;;;;;;;;;;5036045;28;20495;-59
2021/05/15 09:14:59;;;;;;;4.73;1.80;;;;;;;;;;5035682;28;20448;-60
2021/05/15 09:17:27;;;;;;;2.13;1.40;;;;;;;;;;5035493;28;20934;-60
2021/05/15 09:19:54;;;;;;;2.80;1.70;;;;;;;;;;5035958;28;20443;-59
2021/05/15 09:22:28;;;;;;;4.00;1.80;;;;;;;;;;5036848;28;20441;-60
2021/05/15 09:24:55;;;;;;;2.60;1.50;;;;;;;;;;5036549;28;20539;-60
2021/05/15 09:27:32;;;;;;;3.67;2.00;;;;;;;;;;5035603;28;20538;-59
2021/05/15 09:29:59;;;;;;;3.03;1.90;;;;;;;;;;5035843;28;20438;-60
2021/05/15 09:32:30;;;;;;;2.60;1.80;;;;;;;;;;5035614;28;20445;-59
2021/05/15 09:34:57;;;;;;;1.70;1.60;;;;;;;;;;5035615;28;20448;-59
2021/05/15 09:37:33;;;;;;;3.23;1.80;;;;;;;;;;5035437;28;20495;-59
2021/05/15 09:40:10;;;;;;;3.50;3.13;;;;;;;;;;5035448;28;20444;-59
2021/05/15 09:42:44;;;;;;;1.43;1.30;;;;;;;;;;5035176;28;20429;-60
2021/05/15 09:45:16;;;;;;;2.60;1.60;;;;;;;;;;5035261;28;20759;-59
2021/05/15 09:47:51;;;;;;;2.90;1.30;;;;;;;;;;5035176;28;20488;-59
2021/05/15 09:50:18;;;;;;;1.97;1.77;;;;;;;;;;5034924;28;20440;-59
2021/05/15 09:52:46;;;;;;;1.50;1.37;;;;;;;;;;5034925;28;20447;-59
2021/05/15 09:55:13;;;;;;;3.60;2.63;;;;;;;;;;5034860;28;20940;-59
2021/05/15 09:57:40;;;;;;;1.93;1.70;;;;;;;;;;5034780;28;20468;-60
2021/05/15 10:00:11;;;;;;;2.20;1.60;;;;;;;;;;5034698;28;20506;-60
2021/05/15 10:02:38;;;;;;;2.47;1.73;;;;;;;;;;5034707;28;20453;-60
2021/05/15 10:05:13;;;;;;;2.23;1.43;;;;;;;;;;5034935;28;20792;-60
2021/05/15 10:07:39;;;;;;;2.43;1.43;;;;;;;;;;5034437;28;20510;-60
2021/05/15 10:10:08;;;;;;;4.47;1.90;;;;;;;;;;5034432;28;20436;-60
2021/05/15 10:12:36;;;;;;;2.17;1.10;;;;;;;;;;5034548;28;20450;-60
2021/05/15 10:15:04;;;;;;;1.90;1.60;;;;;;;;;;5034369;28;20872;-61
2021/05/15 10:17:30;;;;;;;2.80;1.57;;;;;;;;;;5034443;28;20495;-59
2021/05/15 10:19:57;;;;;;;1.27;1.00;;;;;;;;;;5034827;28;20446;-59
2021/05/15 10:22:25;;;;;;;1.90;1.70;;;;;;;;;;5034687;28;20451;-61
2021/05/15 10:24:52;;;;;;;2.30;1.27;;;;;;;;;;5034660;28;20458;-59
2021/05/15 10:27:19;;;;;;;1.57;1.47;;;;;;;;;;5034460;28;20476;-59
2021/05/15 10:29:48;;;;;;;2.00;1.37;;;;;;;;;;5034530;28;20453;-59
2021/05/15 10:32:23;;;;;;;1.30;1.20;;;;;;;;;;5034744;28;20452;-59
2021/05/15 10:34:57;;;;;;;2.07;1.30;;;;;;;;;;5035198;28;20437;-59
2021/05/15 10:37:25;;;;;;;2.40;1.50;;;;;;;;;;5034203;28;20870;-59
2021/05/15 10:39:52;;;;;;;1.50;1.40;;;;;;;;;;5034750;28;20459;-59
2021/05/15 10:42:28;;;;;;;1.90;1.40;;;;;;;;;;5034059;28;20498;-59
2021/05/15 10:44:55;;;;;;;1.30;1.20;;;;;;;;;;5034496;28;20462;-59
2021/05/15 10:47:22;;;;;;;4.83;3.10;;;;;;;;;;5034147;28;20996;-60
2021/05/15 10:49:49;;;;;;;1.47;1.10;;;;;;;;;;5035777;28;20531;-59
2021/05/15 10:52:17;;;;;;;1.10;0.80;;;;;;;;;;5035357;28;20916;-60
2021/05/15 10:54:46;;;;;;;3.43;2.60;;;;;;;;;;5036858;28;20524;-60
2021/05/15 10:57:14;;;;;;;1.43;1.33;;;;;;;;;;5036142;28;20524;-59
2021/05/15 10:59:41;;;;;;;1.93;1.33;;;;;;;;;;5035525;28;20448;-59
2021/05/15 11:02:09;;;;;;;2.00;1.80;;;;;;;;;;5035648;28;20441;-59
2021/05/15 11:04:47;;;;;;;2.43;2.23;;;;;;;;;;5035291;28;20450;-60
2021/05/15 11:07:14;;;;;;;1.60;1.50;;;;;;;;;;5035171;28;20806;-59
2021/05/15 11:09:51;;;;;;;2.87;1.63;;;;;;;;;;5035212;28;20435;-59
2021/05/15 11:12:19;;;;;;;1.17;1.07;;;;;;;;;;5034484;28;20517;-59
2021/05/15 11:14:46;;;;;;;3.63;0.83;;;;;;;;;;5033597;28;20524;-59
2021/05/15 11:17:17;;;;;;;1.10;0.97;;;;;;;;;;5032697;28;20448;-60
2021/05/15 11:19:51;;;;;;;1.10;1.00;;;;;;;;;;5033233;28;20448;-59
2021/05/15 11:22:18;;;;;;;1.07;0.90;;;;;;;;;;5033087;28;20449;-59
2021/05/15 11:24:52;;;;;;;1.57;0.80;;;;;;;;;;5033479;28;20455;-59
2021/05/15 11:27:20;;;;;;;1.47;1.13;;;;;;;;;;5032830;28;20478;-59
2021/05/15 11:29:47;;;;;;;2.13;0.90;;;;;;;;;;5032758;28;20474;-59
2021/05/15 11:32:14;;;;;;;1.30;1.00;;;;;;;;;;5033131;28;20504;-59
2021/05/15 11:34:42;;;;;;;0.90;0.80;;;;;;;;;;5033090;28;20450;-59
2021/05/15 11:37:09;;;;;;;1.20;0.90;;;;;;;;;;5033301;28;20445;-60
2021/05/15 11:39:36;;;;;;;1.10;0.70;;;;;;;;;;5033168;28;20451;-59
2021/05/15 11:42:12;;;;;;;0.93;0.83;;;;;;;;;;5033110;28;20448;-59
2021/05/15 11:44:41;;;;;;;1.23;1.00;;;;;;;;;;5033239;28;20439;-59
2021/05/15 11:47:09;;;;;;;0.90;0.80;;;;;;;;;;5032815;28;20990;-59
2021/05/15 11:49:36;;;;;;;1.10;0.93;;;;;;;;;;5032746;28;20467;-58
2021/05/15 11:52:04;;;;;;;1.20;1.00;;;;;;;;;;5033039;28;20508;-59
2021/05/15 11:54:31;;;;;;;2.23;1.37;;;;;;;;;;5032943;28;20467;-59
2021/05/15 11:56:58;;;;;;;4.10;0.90;;;;;;;;;;5033072;28;20492;-59
2021/05/15 11:59:26;;;;;;;0.97;0.90;;;;;;;;;;5032662;28;20514;-59
2021/05/15 12:01:53;;;;;;;6.30;1.40;;;;;;;;;;5033568;28;20791;-60
2021/05/15 12:04:25;;;;;;;3.97;1.20;;;;;;;;;;5032488;28;20859;-60
2021/05/15 12:06:54;;;;;;;2.73;1.37;;;;;;;;;;5032403;28;20913;-59
2021/05/15 12:09:21;;;;;;;1.87;0.90;;;;;;;;;;5032496;28;21000;-59
2021/05/15 12:11:49;;;;;;;1.93;1.10;;;;;;;;;;5033406;28;20471;-59
2021/05/15 12:14:19;;;;;;;1.97;1.30;;;;;;;;;;5032991;28;20453;-59
2021/05/15 12:16:46;;;;;;;1.10;1.00;;;;;;;;;;5032118;28;20548;-59
2021/05/15 12:19:19;;;;;;;1.60;1.23;;;;;;;;;;5032603;28;20457;-58
2021/05/15 12:21:54;;;;;;;1.90;1.27;;;;;;;;;;5032811;28;20441;-58
2021/05/15 12:24:21;;;;;;;4.40;1.47;;;;;;;;;;5032743;28;20807;-59
2021/05/15 12:26:48;;;;;;;1.17;1.00;;;;;;;;;;5032865;28;20907;-59
2021/05/15 12:29:15;;;;;;;1.50;1.30;;;;;;;;;;5034813;28;20464;-59
2021/05/15 12:31:42;;;;;;;2.10;1.00;;;;;;;;;;5036740;28;20818;-60
2021/05/15 12:34:10;;;;;;;1.37;1.03;;;;;;;;;;5036491;28;20454;-60
2021/05/15 12:36:38;;;;;;;1.20;1.00;;;;;;;;;;5036976;28;20485;-62
2021/05/15 12:39:06;;;;;;;1.40;1.30;;;;;;;;;;5037036;28;20462;-60
2021/05/15 12:41:34;;;;;;;1.77;1.27;;;;;;;;;;5036138;28;20937;-59
2021/05/15 12:44:02;;;;;;;1.80;1.60;;;;;;;;;;5036480;28;20470;-57
2021/05/15 12:46:31;;;;;;;1.93;1.00;;;;;;;;;;5036133;28;20942;-59
2021/05/15 12:48:59;;;;;;;1.70;1.60;;;;;;;;;;5036256;28;21016;-59
2021/05/15 12:51:28;;;;;;;2.27;1.47;;;;;;;;;;5035950;28;20440;-59
2021/05/15 12:53:55;;;;;;;1.60;1.10;;;;;;;;;;5036427;28;20453;-59
2021/05/15 12:56:28;;;;;;;2.37;1.80;;;;;;;;;;5036235;28;20449;-59
2021/05/15 12:58:55;;;;;;;1.60;1.50;;;;;;;;;;5036417;28;20480;-59
2021/05/15 13:01:23;;;;;;;2.13;1.93;;;;;;;;;;5036420;28;20436;-59
2021/05/15 13:03:51;;;;;;;4.10;1.20;;;;;;;;;;5036306;28;20499;-57
2021/05/15 13:06:18;;;;;;;3.27;1.30;;;;;;;;;;5036295;28;20453;-59
2021/05/15 13:08:52;;;;;;;1.93;1.20;;;;;;;;;;5035810;28;20493;-59
2021/05/15 13:11:20;;;;;;;1.30;1.20;;;;;;;;;;5035823;28;20494;-59
2021/05/15 13:13:47;;;;;;;2.00;1.00;;;;;;;;;;5036038;28;20441;-59
2021/05/15 13:16:15;;;;;;;1.03;0.90;;;;;;;;;;5035613;28;20449;-59
2021/05/15 13:18:42;;;;;;;1.30;0.93;;;;;;;;;;5035781;28;20463;-62
2021/05/15 13:21:09;;;;;;;1.43;0.87;;;;;;;;;;5036057;28;20452;-59
2021/05/15 13:23:36;;;;;;;0.80;0.70;;;;;;;;;;5036648;28;20455;-59
2021/05/15 13:26:05;;;;;;;0.80;0.80;;;;;;;;;;5035752;28;20471;-59
2021/05/15 13:28:32;;;;;;;0.90;0.70;;;;;;;;;;5035953;28;20489;-59
2021/05/15 13:30:58;;;;;;;0.80;0.67;;;;;;;;;;5035948;28;20445;-59
2021/05/15 13:33:25;;;;;;;2.60;0.83;;;;;;;;;;5035894;28;20449;-59
2021/05/15 13:35:52;;;;;;;1.07;0.70;;;;;;;;;;5035762;28;20803;-59
2021/05/15 13:38:19;;;;;;;1.30;0.83;;;;;;;;;;5035526;28;20461;-59
2021/05/15 13:40:45;;;;;;;1.40;0.83;;;;;;;;;;5035582;28;20453;-57
2021/05/15 13:43:13;;;;;;;2.07;0.73;;;;;;;;;;5035606;28;20449;-58
2021/05/15 13:45:40;;;;;;;2.30;1.10;;;;;;;;;;5035414;28;20835;-56
2021/05/15 13:48:07;;;;;;;1.20;0.70;;;;;;;;;;5036430;28;20488;-58
2021/05/15 13:50:34;;;;;;;1.73;1.03;;;;;;;;;;5056887;28;20453;-61
2021/05/15 13:53:01;;;;;;;0.80;0.67;;;;;;;;;;5056438;28;20476;-61
2021/05/15 13:55:27;;;;;;;0.97;0.70;;;;;;;;;;5056016;28;20453;-60
2021/05/15 13:57:54;;;;;;;1.10;0.70;;;;;;;;;;5046531;28;20467;-60
2021/05/15 14:00:22;;;;;;;1.77;0.50;;;;;;;;;;5036167;28;20478;-58
2021/05/15 14:02:49;;;;;;;1.10;0.73;;;;;;;;;;5035494;28;20447;-59
2021/05/15 14:05:16;;;;;;;0.90;0.50;;;;;;;;;;5035485;28;20455;-59
2021/05/15 14:07:44;;;;;;;0.70;0.40;;;;;;;;;;5034602;28;20492;-59
2021/05/15 14:10:11;;;;;;;1.43;0.80;;;;;;;;;;5035007;28;20456;-59
2021/05/15 14:12:39;;;;;;;0.70;0.50;;;;;;;;;;5034883;28;20447;-58
2021/05/15 14:15:06;;;;;;;1.10;0.50;;;;;;;;;;5034821;28;21009;-57
2021/05/15 14:17:34;;;;;;;1.33;0.40;;;;;;;;;;5034803;28;20471;-59
2021/05/15 14:20:01;;;;;;;3.10;1.00;;;;;;;;;;5034550;28;20453;-59
2021/05/15 14:22:29;;;;;;;0.60;0.40;;;;;;;;;;5034856;28;20447;-58
2021/05/15 14:24:56;;;;;;;0.80;0.60;;;;;;;;;;5034471;28;20482;-58
2021/05/15 14:27:25;;;;;;;1.97;0.70;;;;;;;;;;5034780;28;20982;-59
2021/05/15 14:29:52;;;;;;;0.97;0.67;;;;;;;;;;5034603;28;20446;-58
2021/05/15 14:32:19;;;;;;;1.50;0.90;;;;;;;;;;5034549;28;20813;-58
2021/05/15 14:34:47;;;;;;;1.00;0.80;;;;;;;;;;5034472;28;20455;-58